createdAt,value
2023-03-04T00:00:29.817Z,75.50
2023-03-04T00:02:57.305Z,74.95
2023-03-04T00:05:24.776Z,75.62
2023-03-04T00:07:52.083Z,75.64
2023-03-04T00:10:19.747Z,75.26
2023-03-04T00:12:47.253Z,74.94
2023-03-04T00:15:14.941Z,75.46
2023-03-04T00:17:42.215Z,75.70
2023-03-04T00:20:10.039Z,76.41
2023-03-04T00:22:37.812Z,75.65
2023-03-04T00:25:05.794Z,76.50
2023-03-04T00:27:33.263Z,76.50
2023-03-04T00:30:00.496Z,76.25
2023-03-04T00:32:27.888Z,75.38
2023-03-04T00:34:55.188Z,76.38
2023-03-04T00:37:22.756Z,75.21
2023-03-04T00:39:50.865Z,74.90
2023-03-04T00:42:19.095Z,75.11
2023-03-04T00:44:51.603Z,75.70
2023-03-04T00:47:19.510Z,75.72
2023-03-04T00:49:47.221Z,75.83
2023-03-04T00:52:15.353Z,76.80
2023-03-04T00:54:42.674Z,77.51
2023-03-04T00:57:13.179Z,78.02
2023-03-04T00:59:41.091Z,77.52
2023-03-04T01:02:11.277Z,77.16
2023-03-04T01:04:39.130Z,77.47
2023-03-04T01:07:06.734Z,77.74
2023-03-04T01:09:34.603Z,76.93
2023-03-04T01:12:03.458Z,77.75
2023-03-04T01:14:33.453Z,78.23
2023-03-04T01:17:02.629Z,77.86
2023-03-04T01:19:33.367Z,78.07
2023-03-04T01:22:00.805Z,78.40
2023-03-04T01:24:30.184Z,78.16
2023-03-04T01:26:57.874Z,78.95
2023-03-04T01:29:25.206Z,78.62
2023-03-04T01:31:52.456Z,78.76
2023-03-04T01:34:20.957Z,79.06
2023-03-04T01:36:48.287Z,79.89
2023-03-04T01:39:15.654Z,79.72
2023-03-04T01:41:43.301Z,78.46
2023-03-04T01:44:11.379Z,78.48
2023-03-04T01:46:42.617Z,78.58
2023-03-04T01:49:12.224Z,78.76
2023-03-04T01:51:39.571Z,78.65
2023-03-04T01:54:06.978Z,78.24
2023-03-04T01:56:38.932Z,78.15
2023-03-04T01:59:18.401Z,78.52
2023-03-04T02:01:51.233Z,78.98
2023-03-04T02:04:24.213Z,78.08
2023-03-04T02:06:52.206Z,79.46
2023-03-04T02:09:20.376Z,79.06
2023-03-04T02:11:50.196Z,79.26
2023-03-04T02:14:19.514Z,79.29
2023-03-04T02:16:48.534Z,78.61
2023-03-04T02:19:43.786Z,78.78
2023-03-04T02:22:11.119Z,79.17
2023-03-04T02:24:43.388Z,79.97
2023-03-04T02:27:11.023Z,79.70
2023-03-04T02:29:39.139Z,79.57
2023-03-04T02:32:06.750Z,78.80
2023-03-04T02:34:35.485Z,79.94
2023-03-04T02:37:03.999Z,79.69
2023-03-04T02:39:45.443Z,79.33
2023-03-04T02:42:13.239Z,79.04
2023-03-04T02:44:43.600Z,79.60
2023-03-04T02:47:13.356Z,79.70
2023-03-04T02:49:41.540Z,80.10
2023-03-04T02:52:20.176Z,79.69
2023-03-04T02:54:47.481Z,78.88
2023-03-04T02:57:15.852Z,78.84
2023-03-04T02:59:47.040Z,79.26
2023-03-04T03:02:18.878Z,80.05
2023-03-04T03:04:46.546Z,80.30
2023-03-04T03:07:16.493Z,80.80
2023-03-04T03:09:44.082Z,80.11
2023-03-04T03:12:11.485Z,80.44
2023-03-04T03:14:38.920Z,80.54
2023-03-04T03:17:08.565Z,80.23
2023-03-04T03:19:35.975Z,80.16
2023-03-04T03:22:06.549Z,80.00
2023-03-04T03:24:34.124Z,79.82
2023-03-04T03:27:01.884Z,79.53
2023-03-04T03:29:29.410Z,78.73
2023-03-04T03:31:57.192Z,78.05
2023-03-04T03:34:24.689Z,78.80
2023-03-04T03:36:52.324Z,79.60
2023-03-04T03:39:20.085Z,78.36
2023-03-04T03:41:47.555Z,78.52
2023-03-04T03:44:14.949Z,78.24
2023-03-04T03:46:42.395Z,77.71
2023-03-04T03:49:09.753Z,78.22
2023-03-04T03:51:37.037Z,78.34
2023-03-04T03:54:04.483Z,79.66
2023-03-04T03:56:32.886Z,79.12
2023-03-04T03:59:00.317Z,79.21
2023-03-04T04:01:27.617Z,79.07
2023-03-04T04:03:54.963Z,79.17
2023-03-04T04:06:22.493Z,78.79
2023-03-04T04:08:50.044Z,78.04
2023-03-04T04:11:17.536Z,79.27
2023-03-04T04:13:44.851Z,78.96
2023-03-04T04:16:12.457Z,78.56
2023-03-04T04:18:39.912Z,77.71
2023-03-04T04:21:07.753Z,77.45
2023-03-04T04:23:35.509Z,77.07
2023-03-04T04:26:02.899Z,76.81
2023-03-04T04:28:30.298Z,77.28
2023-03-04T04:30:57.865Z,76.73
2023-03-04T04:33:25.488Z,77.65
2023-03-04T04:35:53.086Z,77.28
2023-03-04T04:38:20.556Z,76.75
2023-03-04T04:40:47.921Z,76.43
2023-03-04T04:43:15.170Z,76.89
2023-03-04T04:45:42.528Z,77.14
2023-03-04T04:48:09.895Z,77.10
2023-03-04T04:50:37.415Z,77.25
2023-03-04T04:53:04.731Z,77.72
2023-03-04T04:55:32.236Z,77.50
2023-03-04T04:57:59.497Z,76.50
2023-03-04T05:00:26.843Z,75.91
2023-03-04T05:02:54.471Z,76.65
2023-03-04T05:05:21.997Z,76.23
2023-03-04T05:07:49.252Z,75.92
2023-03-04T05:10:16.676Z,75.22
2023-03-04T05:12:45.089Z,75.66
2023-03-04T05:15:12.528Z,75.53
2023-03-04T05:17:39.942Z,74.63
2023-03-04T05:20:08.837Z,75.91
2023-03-04T05:22:36.209Z,76.29
2023-03-04T05:25:03.898Z,76.84
2023-03-04T05:27:31.251Z,77.03
2023-03-04T05:30:01.537Z,76.70
2023-03-04T05:32:29.040Z,75.02
2023-03-04T05:34:56.523Z,75.44
2023-03-04T05:37:24.147Z,75.99
2023-03-04T05:39:51.434Z,75.87
2023-03-04T05:42:18.665Z,76.24
2023-03-04T05:44:47.207Z,76.13
2023-03-04T05:47:14.640Z,76.36
2023-03-04T05:49:42.692Z,75.85
2023-03-04T05:52:10.333Z,75.24
2023-03-04T05:54:37.866Z,75.33
2023-03-04T05:57:05.420Z,74.46
2023-03-04T05:59:32.764Z,73.79
2023-03-04T06:02:00.036Z,74.04
2023-03-04T06:04:27.462Z,74.12
2023-03-04T06:06:54.814Z,74.55
2023-03-04T06:09:22.163Z,74.52
2023-03-04T06:11:49.395Z,73.92
2023-03-04T06:14:16.676Z,74.36
2023-03-04T06:16:44.229Z,74.05
2023-03-04T06:19:11.592Z,73.40
2023-03-04T06:21:39.313Z,73.77
2023-03-04T06:24:06.908Z,73.41
2023-03-04T06:26:34.226Z,73.63
2023-03-04T06:29:02.350Z,73.52
2023-03-04T06:31:29.915Z,73.23
2023-03-04T06:33:57.219Z,73.60
2023-03-04T06:36:24.449Z,73.40
2023-03-04T06:38:51.859Z,72.59
2023-03-04T06:41:19.428Z,71.74
2023-03-04T06:43:46.857Z,71.81
2023-03-04T06:46:14.501Z,72.18
2023-03-04T06:48:42.043Z,71.70
2023-03-04T06:51:10.780Z,72.37
2023-03-04T06:53:39.209Z,72.14
2023-03-04T06:56:07.512Z,71.98
2023-03-04T06:58:34.950Z,71.89
2023-03-04T07:01:17.636Z,72.29
2023-03-04T07:03:45.979Z,70.86
2023-03-04T07:06:15.143Z,70.26
2023-03-04T07:08:43.309Z,69.70
2023-03-04T07:11:10.996Z,70.36
2023-03-04T07:13:38.543Z,70.57
2023-03-04T07:16:15.227Z,70.79
2023-03-04T07:18:42.709Z,71.21
2023-03-04T07:21:10.110Z,70.57
2023-03-04T07:23:37.411Z,70.72
2023-03-04T07:26:05.468Z,70.64
2023-03-04T07:28:33.360Z,69.98
2023-03-04T07:31:20.909Z,69.87
2023-03-04T07:33:48.397Z,70.23
2023-03-04T07:36:16.169Z,70.07
2023-03-04T07:38:45.641Z,70.64
2023-03-04T07:41:13.958Z,70.63
2023-03-04T07:43:41.481Z,71.05
2023-03-04T07:46:09.450Z,70.50
2023-03-04T07:48:38.849Z,70.25
2023-03-04T07:51:15.349Z,69.50
2023-03-04T07:53:45.553Z,70.43
2023-03-04T07:56:16.292Z,70.16
2023-03-04T07:58:45.456Z,69.71
2023-03-04T08:01:16.280Z,69.67
2023-03-04T08:03:44.246Z,69.17
2023-03-04T08:06:14.685Z,69.00
2023-03-04T08:08:43.176Z,69.38
2023-03-04T08:11:16.502Z,68.91
2023-03-04T08:13:44.029Z,68.84
2023-03-04T08:16:15.972Z,68.88
2023-03-04T08:18:48.300Z,68.75
2023-03-04T08:21:19.420Z,69.02
2023-03-04T08:23:47.196Z,68.57
2023-03-04T08:26:16.620Z,68.85
2023-03-04T08:28:45.817Z,68.50
2023-03-04T08:31:14.765Z,68.50
2023-03-04T08:33:43.706Z,68.02
2023-03-04T08:36:11.197Z,68.96
2023-03-04T08:38:38.883Z,69.36
2023-03-04T08:41:06.427Z,70.52
2023-03-04T08:43:34.788Z,70.48
2023-03-04T08:46:02.573Z,69.88
2023-03-04T08:48:30.079Z,70.10
2023-03-04T08:50:57.681Z,71.03
2023-03-04T08:53:25.433Z,70.86
2023-03-04T08:55:53.341Z,69.01
2023-03-04T08:58:21.077Z,67.63
2023-03-04T09:00:49.485Z,67.21
2023-03-04T09:03:19.479Z,66.35
2023-03-04T09:05:47.477Z,66.07
2023-03-04T09:08:18.579Z,66.18
2023-03-04T09:10:46.798Z,65.78
2023-03-04T09:13:17.273Z,65.05
2023-03-04T09:15:50.114Z,65.00
2023-03-04T09:18:18.668Z,64.95
2023-03-04T09:20:46.449Z,65.42
2023-03-04T09:23:14.113Z,65.43
2023-03-04T09:25:42.576Z,65.10
2023-03-04T09:28:10.831Z,64.26
2023-03-04T09:30:38.499Z,65.22
2023-03-04T09:33:06.219Z,64.09
2023-03-04T09:35:33.655Z,63.89
2023-03-04T09:38:01.145Z,64.24
2023-03-04T09:40:41.977Z,64.86
2023-03-04T09:43:19.253Z,64.04
2023-03-04T09:45:50.352Z,63.62
2023-03-04T09:48:21.757Z,64.42
2023-03-04T09:51:09.274Z,64.17
2023-03-04T09:53:55.340Z,64.01
2023-03-04T09:56:22.890Z,64.21
2023-03-04T09:59:13.506Z,64.01
2023-03-04T10:01:53.677Z,64.53
2023-03-04T10:04:42.247Z,64.27
2023-03-04T10:07:18.367Z,64.05
2023-03-04T10:10:02.418Z,64.13
2023-03-04T10:12:31.908Z,63.92
2023-03-04T10:15:22.221Z,63.66
2023-03-04T10:17:54.068Z,63.94
2023-03-04T10:20:25.510Z,63.21
2023-03-04T10:23:12.980Z,63.68
2023-03-04T10:25:45.664Z,64.28
2023-03-04T10:28:18.442Z,64.33
2023-03-04T10:31:08.005Z,64.96
2023-03-04T10:33:39.838Z,64.50
2023-03-04T10:36:22.435Z,63.73
2023-03-04T10:38:57.715Z,64.81
2023-03-04T10:41:27.711Z,64.52
2023-03-04T10:44:03.850Z,64.29
2023-03-04T10:46:31.965Z,63.69
2023-03-04T10:48:59.324Z,64.01
2023-03-04T10:51:29.308Z,64.16
2023-03-04T10:54:30.235Z,64.41
2023-03-04T10:57:03.832Z,63.76
2023-03-04T10:59:32.218Z,63.53
2023-03-04T11:02:02.116Z,63.35
2023-03-04T11:04:33.128Z,63.68
2023-03-04T11:07:00.516Z,64.56
2023-03-04T11:09:30.556Z,64.18
2023-03-04T11:12:03.314Z,64.38
2023-03-04T11:14:40.530Z,64.67
2023-03-04T11:17:21.670Z,64.14
2023-03-04T11:19:54.855Z,63.28
2023-03-04T11:22:23.972Z,63.74
2023-03-04T11:24:57.856Z,63.35
2023-03-04T11:27:34.781Z,64.02
2023-03-04T11:30:23.492Z,64.83
2023-03-04T11:32:52.185Z,65.04
2023-03-04T11:35:48.971Z,64.07
2023-03-04T11:38:33.632Z,65.35
2023-03-04T11:41:09.508Z,64.50
2023-03-04T11:43:38.821Z,64.15
2023-03-04T11:46:17.685Z,63.78
2023-03-04T11:48:59.817Z,63.51
2023-03-04T11:51:45.707Z,63.26
2023-03-04T11:54:36.099Z,62.80
2023-03-04T11:57:13.081Z,63.54
2023-03-04T11:59:59.131Z,63.99
2023-03-04T12:02:34.546Z,63.57
2023-03-04T12:05:21.760Z,63.39
2023-03-04T12:08:36.219Z,63.24
2023-03-04T12:11:33.317Z,63.74
2023-03-04T12:14:09.685Z,63.31
2023-03-04T12:16:52.791Z,63.39
2023-03-04T12:19:52.937Z,62.97
2023-03-04T12:22:23.303Z,62.26
2023-03-04T12:24:53.696Z,62.50
2023-03-04T12:27:39.313Z,62.65
2023-03-04T12:30:35.213Z,62.68
2023-03-04T12:33:34.267Z,62.27
2023-03-04T12:36:19.485Z,62.12
2023-03-04T12:38:59.417Z,63.07
2023-03-04T12:41:32.748Z,62.63
2023-03-04T12:44:19.553Z,63.08
2023-03-04T12:47:12.940Z,62.26
2023-03-04T12:49:54.363Z,62.13
2023-03-04T12:52:33.970Z,63.03
2023-03-04T12:55:04.399Z,62.56
2023-03-04T12:57:33.331Z,62.35
2023-03-04T13:00:13.030Z,62.39
2023-03-04T13:03:05.249Z,62.44
2023-03-04T13:06:02.255Z,63.27
2023-03-04T13:09:06.786Z,62.60
2023-03-04T13:11:40.657Z,62.74
2023-03-04T13:14:15.082Z,62.71
2023-03-04T13:16:50.058Z,62.51
2023-03-04T13:19:42.569Z,62.85
2023-03-04T13:22:40.658Z,62.96
2023-03-04T13:25:40.926Z,63.07
2023-03-04T13:28:11.545Z,62.63
2023-03-04T13:30:38.997Z,62.25
2023-03-04T13:33:13.537Z,64.06
2023-03-04T13:35:50.031Z,64.06
2023-03-04T13:38:29.384Z,63.99
2023-03-04T13:41:15.379Z,64.41
2023-03-04T13:43:43.658Z,64.38
2023-03-04T13:46:20.284Z,64.23
2023-03-04T13:48:50.699Z,63.58
2023-03-04T13:51:28.955Z,64.29
2023-03-04T13:54:00.127Z,64.84
2023-03-04T13:56:34.951Z,64.54
2023-03-04T13:59:24.731Z,64.13
2023-03-04T14:02:08.872Z,64.10
2023-03-04T14:04:41.517Z,63.66
2023-03-04T14:07:25.764Z,63.32
2023-03-04T14:10:00.387Z,62.69
2023-03-04T14:12:30.512Z,62.67
2023-03-04T14:14:58.471Z,62.93
2023-03-04T14:17:32.662Z,63.75
2023-03-04T14:20:01.428Z,63.28
2023-03-04T14:22:41.808Z,63.45
2023-03-04T14:25:21.808Z,64.22
2023-03-04T14:27:49.204Z,64.44
2023-03-04T14:30:40.700Z,63.73
2023-03-04T14:33:14.295Z,63.70
2023-03-04T14:35:47.083Z,62.83
2023-03-04T14:38:31.387Z,63.37
2023-03-04T14:41:06.221Z,64.10
2023-03-04T14:43:40.314Z,63.41
2023-03-04T14:46:12.489Z,63.35
2023-03-04T14:48:40.706Z,64.14
2023-03-04T14:51:50.673Z,63.91
2023-03-04T14:54:28.740Z,64.59
2023-03-04T14:56:56.340Z,64.81
2023-03-04T14:59:32.130Z,63.51
2023-03-04T15:02:31.517Z,63.35
2023-03-04T15:05:01.150Z,64.47
2023-03-04T15:07:34.423Z,63.26
2023-03-04T15:10:04.609Z,63.29
2023-03-04T15:12:32.653Z,62.92
2023-03-04T15:15:02.736Z,63.79
2023-03-04T15:17:40.957Z,63.29
2023-03-04T15:20:08.878Z,61.89
2023-03-04T15:22:37.549Z,62.15
2023-03-04T15:25:05.244Z,63.27
2023-03-04T15:27:32.877Z,63.19
2023-03-04T15:30:01.653Z,63.20
2023-03-04T15:32:29.938Z,62.27
2023-03-04T15:34:57.685Z,63.20
2023-03-04T15:37:28.212Z,62.76
2023-03-04T15:39:56.856Z,62.22
2023-03-04T15:42:24.979Z,63.11
2023-03-04T15:44:52.314Z,62.28
2023-03-04T15:47:19.873Z,61.54
2023-03-04T15:49:47.691Z,61.98
2023-03-04T15:52:17.795Z,61.79
2023-03-04T15:54:45.927Z,62.30
2023-03-04T15:57:24.149Z,63.06
2023-03-04T15:59:52.001Z,62.45
2023-03-04T16:02:21.746Z,62.43
2023-03-04T16:04:49.249Z,61.77
2023-03-04T16:07:23.239Z,62.19
2023-03-04T16:10:02.396Z,62.95
2023-03-04T16:12:29.991Z,62.43
2023-03-04T16:14:57.599Z,62.94
2023-03-04T16:17:28.152Z,62.83
2023-03-04T16:19:55.670Z,63.25
2023-03-04T16:22:25.957Z,62.57
2023-03-04T16:24:54.839Z,62.94
2023-03-04T16:27:22.313Z,63.57
2023-03-04T16:29:49.679Z,62.34
2023-03-04T16:32:17.111Z,61.25
2023-03-04T16:34:44.430Z,61.00
2023-03-04T16:37:19.576Z,60.85
2023-03-04T16:39:49.236Z,60.95
2023-03-04T16:42:19.098Z,61.71
2023-03-04T16:44:46.753Z,61.52
2023-03-04T16:47:14.161Z,60.71
2023-03-04T16:49:41.588Z,61.82
2023-03-04T16:52:18.633Z,61.79
2023-03-04T16:54:46.518Z,61.07
2023-03-04T16:57:16.552Z,61.22
2023-03-04T16:59:45.953Z,60.47
2023-03-04T17:02:15.400Z,60.11
2023-03-04T17:04:43.751Z,61.21
2023-03-04T17:07:12.341Z,60.50
2023-03-04T17:09:39.808Z,60.81
2023-03-04T17:12:09.240Z,61.28
2023-03-04T17:14:39.784Z,61.27
2023-03-04T17:17:07.499Z,61.46
2023-03-04T17:19:35.004Z,60.89
2023-03-04T17:22:02.576Z,61.99
2023-03-04T17:24:30.454Z,62.20
2023-03-04T17:26:57.991Z,62.05
2023-03-04T17:29:25.862Z,61.65
2023-03-04T17:31:53.215Z,61.38
2023-03-04T17:34:20.692Z,61.58
2023-03-04T17:36:48.247Z,61.76
2023-03-04T17:39:16.107Z,61.86
2023-03-04T17:41:43.462Z,61.69
2023-03-04T17:44:11.656Z,60.92
2023-03-04T17:46:39.357Z,61.15
2023-03-04T17:49:07.047Z,62.10
2023-03-04T17:51:36.640Z,62.42
2023-03-04T17:54:05.757Z,61.85
2023-03-04T17:56:34.061Z,61.57
2023-03-04T17:59:04.760Z,60.87
2023-03-04T18:01:32.098Z,61.34
2023-03-04T18:03:59.797Z,61.45
2023-03-04T18:06:27.219Z,61.22
2023-03-04T18:08:55.412Z,61.50
2023-03-04T18:11:24.549Z,61.82
2023-03-04T18:13:54.290Z,62.32
2023-03-04T18:16:27.341Z,62.97
2023-03-04T18:18:57.882Z,62.63
2023-03-04T18:21:26.944Z,62.88
2023-03-04T18:23:54.578Z,62.49
2023-03-04T18:26:25.451Z,62.66
2023-03-04T18:28:53.942Z,63.04
2023-03-04T18:31:23.528Z,63.42
2023-03-04T18:33:51.513Z,62.65
2023-03-04T18:36:19.050Z,62.56
2023-03-04T18:38:46.685Z,62.20
2023-03-04T18:41:14.883Z,62.26
2023-03-04T18:43:42.789Z,61.82
2023-03-04T18:46:17.604Z,61.80
2023-03-04T18:48:52.725Z,61.94
2023-03-04T18:51:20.494Z,62.15
2023-03-04T18:53:47.928Z,62.16
2023-03-04T18:56:18.971Z,62.63
2023-03-04T18:58:47.774Z,62.49
2023-03-04T19:01:16.895Z,62.30
2023-03-04T19:03:45.008Z,62.76
2023-03-04T19:06:13.109Z,63.42
2023-03-04T19:08:40.516Z,63.78
2023-03-04T19:11:16.794Z,63.47
2023-03-04T19:13:44.550Z,63.95
2023-03-04T19:16:11.867Z,64.25
2023-03-04T19:18:39.528Z,63.64
2023-03-04T19:21:07.132Z,63.96
2023-03-04T19:23:34.358Z,63.75
2023-03-04T19:26:01.771Z,63.24
2023-03-04T19:28:29.268Z,62.49
2023-03-04T19:30:59.289Z,62.71
2023-03-04T19:33:26.833Z,62.75
2023-03-04T19:35:54.080Z,63.09
2023-03-04T19:38:22.364Z,63.18
2023-03-04T19:40:49.747Z,63.23
2023-03-04T19:43:18.642Z,62.76
2023-03-04T19:45:55.765Z,63.15
2023-03-04T19:48:25.066Z,63.23
2023-03-04T19:50:52.457Z,63.07
2023-03-04T19:53:20.390Z,62.94
2023-03-04T19:55:50.635Z,63.21
2023-03-04T19:58:19.007Z,63.23
2023-03-04T20:00:46.880Z,63.60
2023-03-04T20:03:14.372Z,64.34
2023-03-04T20:05:41.754Z,63.71
2023-03-04T20:08:09.125Z,63.67
2023-03-04T20:10:37.436Z,63.64
2023-03-04T20:13:10.777Z,63.73
2023-03-04T20:15:42.967Z,63.64
2023-03-04T20:18:10.674Z,63.65
2023-03-04T20:20:39.121Z,63.84
2023-03-04T20:23:06.889Z,63.91
2023-03-04T20:25:34.264Z,64.11
2023-03-04T20:28:02.154Z,63.10
2023-03-04T20:30:29.497Z,62.74
2023-03-04T20:33:02.276Z,63.62
2023-03-04T20:35:33.568Z,63.49
2023-03-04T20:38:03.947Z,62.92
2023-03-04T20:40:31.425Z,63.14
2023-03-04T20:42:59.028Z,63.12
2023-03-04T20:45:26.419Z,63.10
2023-03-04T20:47:53.606Z,62.49
2023-03-04T20:50:21.001Z,63.09
2023-03-04T20:52:48.648Z,62.99
2023-03-04T20:55:16.290Z,62.98
2023-03-04T20:57:43.612Z,62.75
2023-03-04T21:00:12.290Z,63.70
2023-03-04T21:02:44.765Z,63.51
2023-03-04T21:05:12.425Z,63.50
2023-03-04T21:07:39.859Z,63.88
2023-03-04T21:10:07.610Z,63.37
2023-03-04T21:12:35.073Z,63.75
2023-03-04T21:15:02.401Z,63.35
2023-03-04T21:17:29.709Z,63.17
2023-03-04T21:19:57.214Z,64.01
2023-03-04T21:22:24.558Z,63.40
2023-03-04T21:24:52.053Z,63.43
2023-03-04T21:27:19.394Z,62.77
2023-03-04T21:29:47.032Z,64.35
2023-03-04T21:32:24.572Z,64.25
2023-03-04T21:34:53.269Z,64.22
2023-03-04T21:37:21.616Z,63.48
2023-03-04T21:39:49.167Z,63.77
2023-03-04T21:42:16.507Z,63.47
2023-03-04T21:44:51.899Z,63.42
2023-03-04T21:47:20.499Z,64.39
2023-03-04T21:49:48.200Z,64.16
2023-03-04T21:52:16.102Z,64.57
2023-03-04T21:54:43.699Z,64.84
2023-03-04T21:57:11.095Z,64.51
2023-03-04T21:59:38.924Z,64.20
2023-03-04T22:02:24.932Z,63.94
2023-03-04T22:04:53.775Z,64.53
2023-03-04T22:07:21.466Z,64.79
2023-03-04T22:09:49.077Z,64.85
2023-03-04T22:12:18.434Z,64.77
2023-03-04T22:14:46.922Z,64.83
2023-03-04T22:17:14.281Z,64.59
2023-03-04T22:19:41.694Z,65.17
2023-03-04T22:22:09.220Z,65.91
2023-03-04T22:24:36.518Z,66.07
2023-03-04T22:27:03.861Z,65.95
2023-03-04T22:29:31.237Z,66.92
2023-03-04T22:31:58.799Z,66.16
2023-03-04T22:34:26.477Z,65.77
2023-03-04T22:36:53.894Z,65.37
2023-03-04T22:39:23.103Z,64.53
2023-03-04T22:41:50.786Z,65.19
2023-03-04T22:44:18.215Z,65.84
2023-03-04T22:46:45.577Z,65.80
2023-03-04T22:49:13.635Z,65.68
2023-03-04T22:51:42.527Z,65.60
2023-03-04T22:54:17.455Z,66.23
2023-03-04T22:56:45.337Z,65.84
2023-03-04T22:59:13.177Z,64.91
2023-03-04T23:01:40.736Z,65.78
2023-03-04T23:04:08.110Z,66.38
2023-03-04T23:06:35.901Z,66.90
2023-03-04T23:09:04.042Z,67.48
2023-03-04T23:11:35.170Z,67.14
2023-03-04T23:14:06.509Z,66.94
2023-03-04T23:16:42.387Z,66.62
2023-03-04T23:19:14.546Z,66.93
2023-03-04T23:21:42.159Z,67.11
2023-03-04T23:24:11.892Z,66.43
2023-03-04T23:26:40.626Z,66.94
2023-03-04T23:29:09.803Z,66.37
2023-03-04T23:31:37.572Z,65.68
2023-03-04T23:34:05.347Z,66.37
2023-03-04T23:36:34.470Z,67.21
2023-03-04T23:39:02.056Z,66.63
2023-03-04T23:41:31.275Z,66.49
2023-03-04T23:43:59.473Z,66.65
2023-03-04T23:46:28.003Z,65.52
2023-03-04T23:48:55.916Z,64.83
2023-03-04T23:51:26.494Z,64.27
2023-03-04T23:53:54.157Z,64.53
2023-03-04T23:56:27.784Z,63.69
2023-03-04T23:58:55.817Z,63.23
